Time;durP1;ratioP1;P1;durP2;ratioP2;P2;SDS_P1;SDS_P2;PMS_P1;PMS_P2;Temp;Humidity;BMP_temperature;BMP_pressure;BME280_temperature;BME280_humidity;BME280_pressure;Samples;Min_cycle;Max_cycle;Signal;HPM_P1;HPM_P2
2022/08/06 00:02:14;;;;;;;2.30;1.20;;;14.30;99.90;;;;;;4952478;28;20038;-91
2022/08/06 00:04:40;;;;;;;7.72;1.48;;;14.30;99.90;;;;;;4934548;28;20267;-91
2022/08/06 00:07:05;;;;;;;6.22;1.75;;;14.20;99.90;;;;;;4952535;28;20066;-90
2022/08/06 00:09:32;;;;;;;3.83;1.13;;;14.20;99.90;;;;;;4951847;28;20042;-90
2022/08/06 00:12:07;;;;;;;4.88;1.38;;;14.20;99.90;;;;;;4969799;28;20039;-90
2022/08/06 00:14:33;;;;;;;4.30;1.33;;;14.20;99.90;;;;;;4953872;28;20043;-89
2022/08/06 00:16:59;;;;;;;4.40;1.30;;;14.20;99.90;;;;;;4952682;28;20043;-90
2022/08/06 00:19:25;;;;;;;2.97;1.30;;;14.20;99.90;;;;;;4951860;28;20039;-90
2022/08/06 00:21:51;;;;;;;4.15;1.50;;;14.20;99.90;;;;;;4936676;28;20073;-90
2022/08/06 00:24:17;;;;;;;3.35;1.20;;;14.10;99.90;;;;;;4954154;28;20504;-89
2022/08/06 00:26:43;;;;;;;4.28;1.30;;;14.10;99.90;;;;;;4952413;28;20043;-90
2022/08/06 00:29:09;;;;;;;4.70;1.30;;;14.10;99.90;;;;;;4935798;28;20214;-91
2022/08/06 00:31:35;;;;;;;3.13;1.23;;;14.10;99.90;;;;;;4933849;28;20298;-90
2022/08/06 00:34:02;;;;;;;4.13;1.30;;;14.00;99.90;;;;;;4918368;29;20039;-90
2022/08/06 00:36:29;;;;;;;3.42;1.20;;;14.00;99.90;;;;;;4916391;29;20039;-90
2022/08/06 00:38:56;;;;;;;3.83;1.30;;;14.00;99.90;;;;;;4917778;28;20046;-90
2022/08/06 00:41:22;;;;;;;3.80;1.30;;;14.00;99.90;;;;;;4932828;28;20075;-90
2022/08/06 00:43:48;;;;;;;3.25;1.20;;;14.00;99.90;;;;;;4932614;28;20075;-90
2022/08/06 00:46:14;;;;;;;3.85;1.10;;;13.90;99.90;;;;;;4919207;28;20195;-90
2022/08/06 00:48:39;;;;;;;7.10;1.40;;;14.00;99.90;;;;;;4917524;29;20050;-90
2022/08/06 00:51:05;;;;;;;3.13;1.10;;;13.90;99.90;;;;;;4917497;29;20493;-90
2022/08/06 00:53:31;;;;;;;4.43;1.23;;;13.90;99.90;;;;;;4930984;28;20118;-91
2022/08/06 00:55:57;;;;;;;3.70;1.20;;;13.90;99.90;;;;;;4914789;29;20035;-90
2022/08/06 00:58:23;;;;;;;6.32;1.42;;;13.90;99.90;;;;;;4932395;29;20102;-89
2022/08/06 01:00:48;;;;;;;2.55;1.20;;;13.90;99.90;;;;;;4913965;29;20118;-89
2022/08/06 01:03:16;;;;;;;3.45;1.15;;;13.90;99.90;;;;;;4916380;29;20039;-90
2022/08/06 01:05:45;;;;;;;3.65;1.30;;;13.80;99.90;;;;;;4917272;29;20102;-89
2022/08/06 01:08:11;;;;;;;3.10;1.20;;;13.80;99.90;;;;;;4914101;28;20658;-90
2022/08/06 01:10:37;;;;;;;3.20;1.05;;;13.80;99.90;;;;;;4946031;28;20047;-90
2022/08/06 01:13:03;;;;;;;3.35;1.20;;;13.80;99.90;;;;;;4932226;29;20040;-90
2022/08/06 01:15:29;;;;;;;3.58;1.00;;;13.80;99.90;;;;;;4948128;28;20053;-90
2022/08/06 01:18:07;;;;;;;3.60;1.23;;;13.80;99.90;;;;;;4917692;28;20437;-91
2022/08/06 01:20:58;;;;;;;3.35;1.20;;;13.80;99.90;;;;;;4931193;28;20391;-90
2022/08/06 01:23:38;;;;;;;4.72;1.30;;;13.80;99.90;;;;;;4933241;29;20062;-90
2022/08/06 01:26:10;;;;;;;2.28;1.05;;;13.80;99.90;;;;;;4931305;29;20629;-90
2022/08/06 01:29:07;;;;;;;5.35;1.40;;;13.80;99.90;;;;;;4948630;28;20146;-90
2022/08/06 01:31:58;;;;;;;3.83;1.33;;;13.70;99.90;;;;;;4931244;28;20035;-90
2022/08/06 01:34:38;;;;;;;4.22;1.30;;;13.80;99.90;;;;;;4926767;28;20042;-90
2022/08/06 01:37:06;;;;;;;6.10;1.60;;;13.80;99.90;;;;;;4945503;28;20036;-90
2022/08/06 01:39:33;;;;;;;3.40;1.30;;;13.80;99.90;;;;;;4930623;28;20097;-91
2022/08/06 01:42:02;;;;;;;6.22;2.05;;;13.80;99.90;;;;;;4946507;28;20039;-91
2022/08/06 01:44:39;;;;;;;4.90;1.70;;;13.80;99.90;;;;;;4947752;28;20145;-91
2022/08/06 01:47:08;;;;;;;5.75;1.70;;;13.80;99.90;;;;;;4932502;28;20043;-92
2022/08/06 01:49:37;;;;;;;4.78;1.73;;;13.80;99.90;;;;;;4931747;28;20036;-90
2022/08/06 01:52:07;;;;;;;6.35;1.80;;;13.50;99.90;;;;;;4947888;28;20137;-90
2022/08/06 01:54:40;;;;;;;5.65;1.70;;;13.70;99.90;;;;;;4929628;29;20515;-90
2022/08/06 01:57:07;;;;;;;5.75;1.80;;;13.70;99.90;;;;;;4932047;29;20031;-89
2022/08/06 01:59:36;;;;;;;6.93;1.58;;;13.70;99.90;;;;;;4916198;28;20050;-91
2022/08/06 02:02:05;;;;;;;8.07;1.95;;;13.70;99.90;;;;;;4932394;29;20042;-90
2022/08/06 02:04:36;;;;;;;5.63;1.67;;;13.60;99.90;;;;;;4931565;28;20047;-90
2022/08/06 02:07:05;;;;;;;5.50;1.45;;;13.60;99.90;;;;;;4930165;28;20031;-90
2022/08/06 02:09:33;;;;;;;4.10;1.60;;;13.70;99.90;;;;;;4930044;29;20576;-90
2022/08/06 02:12:10;;;;;;;5.30;1.60;;;13.50;99.90;;;;;;4932722;29;20042;-91
2022/08/06 02:14:45;;;;;;;4.97;1.70;;;13.50;99.90;;;;;;4931971;28;20123;-90
2022/08/06 02:17:13;;;;;;;4.30;1.80;;;13.50;99.90;;;;;;4932083;28;20496;-91
2022/08/06 02:19:45;;;;;;;5.75;1.77;;;14.00;99.90;;;;;;4927956;29;20496;-90
2022/08/06 02:22:11;;;;;;;5.57;1.80;;;13.40;99.90;;;;;;4930252;29;20102;-90
2022/08/06 02:24:38;;;;;;;3.95;1.70;;;13.40;99.90;;;;;;4931432;28;20052;-90
2022/08/06 02:27:06;;;;;;;6.25;1.70;;;13.50;99.90;;;;;;4921347;29;20461;-91
2022/08/06 02:29:33;;;;;;;3.53;1.70;;;13.50;99.90;;;;;;4933131;28;20102;-91
2022/08/06 02:31:59;;;;;;;6.13;1.80;;;13.40;99.90;;;;;;4921093;28;20047;-89
2022/08/06 02:34:25;;;;;;;6.28;1.90;;;13.40;99.90;;;;;;4934755;29;20051;-90
2022/08/06 02:37:10;;;;;;;5.45;1.80;;;13.40;99.90;;;;;;4918149;28;20388;-90
2022/08/06 02:39:41;;;;;;;6.72;1.95;;;13.40;99.90;;;;;;4931888;28;20390;-90
2022/08/06 02:42:31;;;;;;;5.03;1.60;;;13.40;99.90;;;;;;4935519;29;20054;-90
2022/08/06 02:45:09;;;;;;;5.40;1.70;;;13.40;99.90;;;;;;4936068;29;20050;-90
2022/08/06 02:48:01;;;;;;;4.47;1.63;;;13.40;99.90;;;;;;4932368;29;20205;-91
2022/08/06 02:50:41;;;;;;;4.85;1.60;;;13.40;99.90;;;;;;4933340;28;20493;-91
2022/08/06 02:53:10;;;;;;;5.07;1.60;;;13.40;99.90;;;;;;4951921;28;20035;-90
2022/08/06 02:55:39;;;;;;;4.00;1.52;;;13.40;99.90;;;;;;4934811;29;20083;-92
2022/08/06 02:58:23;;;;;;;4.45;1.60;;;13.30;99.90;;;;;;4951184;28;20035;-91
2022/08/06 03:00:52;;;;;;;4.63;1.80;;;13.30;99.90;;;;;;4933361;28;20525;-90
2022/08/06 03:03:22;;;;;;;3.70;1.70;;;13.30;99.90;;;;;;4951772;28;20054;-91
2022/08/06 03:05:50;;;;;;;5.00;1.70;;;13.30;99.90;;;;;;4950355;28;20118;-91
2022/08/06 03:08:23;;;;;;;4.20;1.60;;;13.20;99.90;;;;;;4919198;28;20031;-90
2022/08/06 03:10:50;;;;;;;5.00;1.70;;;13.20;99.90;;;;;;4933882;28;20047;-90
2022/08/06 03:13:21;;;;;;;4.22;1.70;;;13.20;99.90;;;;;;4934415;29;20074;-91
2022/08/06 03:15:48;;;;;;;5.47;1.83;;;13.20;99.90;;;;;;4934344;28;20047;-89
2022/08/06 03:18:16;;;;;;;5.20;1.70;;;13.10;99.90;;;;;;4917123;28;20042;-90
2022/08/06 03:20:43;;;;;;;3.65;1.58;;;13.10;99.90;;;;;;4934770;28;20464;-89
2022/08/06 03:23:11;;;;;;;5.70;1.98;;;13.10;99.90;;;;;;4918370;29;20098;-91
2022/08/06 03:25:38;;;;;;;6.35;1.90;;;13.10;99.90;;;;;;4934029;28;20043;-90
2022/08/06 03:28:05;;;;;;;8.02;2.03;;;13.10;99.90;;;;;;4932275;28;20094;-90
2022/08/06 03:30:33;;;;;;;6.45;2.03;;;13.10;99.90;;;;;;4933674;29;20211;-91
2022/08/06 03:33:14;;;;;;;6.30;1.95;;;13.10;99.90;;;;;;4917595;29;20465;-91
2022/08/06 03:35:41;;;;;;;4.32;1.80;;;13.10;99.90;;;;;;4934543;28;20093;-89
2022/08/06 03:38:14;;;;;;;5.72;1.98;;;13.00;99.90;;;;;;4931020;28;20046;-89
2022/08/06 03:40:46;;;;;;;5.40;1.60;;;13.00;99.90;;;;;;4916821;28;20069;-91
2022/08/06 03:43:12;;;;;;;7.95;2.10;;;13.00;99.90;;;;;;4932510;28;20042;-91
2022/08/06 03:45:44;;;;;;;10.18;1.70;;;13.00;99.90;;;;;;4918494;29;20043;-89
2022/08/06 03:48:14;;;;;;;6.22;2.00;;;12.90;99.90;;;;;;4933897;29;20113;-90
2022/08/06 03:50:43;;;;;;;5.80;1.75;;;12.90;99.90;;;;;;4933193;28;20094;-89
2022/08/06 03:53:34;;;;;;;5.20;1.65;;;12.90;99.90;;;;;;4916356;29;20470;-89
2022/08/06 03:56:01;;;;;;;4.43;1.60;;;12.90;99.90;;;;;;4934022;28;20043;-90
2022/08/06 03:58:28;;;;;;;5.13;1.63;;;12.90;99.90;;;;;;4932400;28;20051;-89
2022/08/06 04:01:02;;;;;;;3.80;1.58;;;12.80;99.90;;;;;;4933225;29;20035;-89
2022/08/06 04:03:28;;;;;;;5.00;1.80;;;12.80;99.90;;;;;;4932580;28;20055;-89
2022/08/06 04:05:55;;;;;;;5.45;1.70;;;12.80;99.90;;;;;;4934433;29;20054;-88
2022/08/06 04:08:22;;;;;;;7.82;1.90;;;12.80;99.90;;;;;;4949309;28;20147;-90
2022/08/06 04:10:50;;;;;;;5.97;1.92;;;12.80;99.90;;;;;;4915187;28;20039;-89
2022/08/06 04:13:18;;;;;;;4.82;1.80;;;12.80;99.90;;;;;;4917551;29;20485;-88
2022/08/06 04:15:44;;;;;;;4.63;1.67;;;12.80;99.90;;;;;;4947349;28;20075;-89
2022/08/06 04:18:18;;;;;;;3.78;1.58;;;12.70;99.90;;;;;;4916782;28;20509;-88
2022/08/06 04:20:50;;;;;;;4.25;1.60;;;12.70;99.90;;;;;;4931626;28;20049;-89
2022/08/06 04:23:16;;;;;;;5.38;1.70;;;12.70;99.90;;;;;;4946123;28;20586;-90
2022/08/06 04:25:49;;;;;;;5.95;1.80;;;12.70;99.90;;;;;;4949316;28;20057;-90
2022/08/06 04:28:16;;;;;;;6.05;2.03;;;12.80;99.90;;;;;;4932353;28;20047;-91
2022/08/06 04:30:43;;;;;;;6.25;2.10;;;12.80;99.90;;;;;;4950112;28;20134;-90
2022/08/06 04:33:13;;;;;;;4.40;1.83;;;12.80;99.90;;;;;;4932402;28;20043;-92
2022/08/06 04:35:41;;;;;;;5.00;1.90;;;12.90;99.90;;;;;;4930465;29;20098;-91
2022/08/06 04:38:08;;;;;;;5.55;1.75;;;12.80;99.90;;;;;;4932894;29;20047;-90
2022/08/06 04:40:36;;;;;;;7.13;2.10;;;12.90;99.90;;;;;;4931731;28;20082;-89
2022/08/06 04:43:04;;;;;;;7.00;2.10;;;13.00;99.90;;;;;;4917886;28;20031;-89
2022/08/06 04:45:32;;;;;;;6.03;1.80;;;13.00;99.90;;;;;;4926684;29;20126;-92
2022/08/06 04:47:59;;;;;;;7.18;2.00;;;13.10;99.90;;;;;;4910382;29;20071;-91
2022/08/06 04:50:25;;;;;;;6.55;1.90;;;13.20;99.90;;;;;;4932731;29;20042;-92
2022/08/06 04:52:51;;;;;;;5.28;1.83;;;13.20;99.90;;;;;;4916487;28;20039;-91
2022/08/06 04:55:20;;;;;;;4.60;1.90;;;13.30;99.90;;;;;;4934142;28;20034;-90
2022/08/06 04:57:46;;;;;;;4.93;1.90;;;13.30;99.90;;;;;;4916122;28;20496;-91
2022/08/06 05:00:12;;;;;;;6.75;2.40;;;13.40;99.90;;;;;;4917274;28;20039;-90
2022/08/06 05:02:38;;;;;;;7.20;1.92;;;13.50;99.90;;;;;;4915126;28;20146;-91
2022/08/06 05:05:06;;;;;;;6.68;2.30;;;13.50;99.90;;;;;;4916323;29;20518;-90
2022/08/06 05:07:34;;;;;;;5.60;2.00;;;13.60;99.90;;;;;;4933046;29;20889;-89
2022/08/06 05:10:00;;;;;;;6.15;2.17;;;13.70;99.90;;;;;;4932425;28;20146;-90
2022/08/06 05:12:46;;;;;;;4.80;1.90;;;13.80;99.90;;;;;;4933238;28;20205;-92
2022/08/06 05:15:27;;;;;;;5.72;1.80;;;13.80;99.90;;;;;;4930347;29;20043;-93
2022/08/06 05:18:07;;;;;;;4.70;1.77;;;13.80;99.90;;;;;;4932124;28;20031;-92
2022/08/06 05:20:35;;;;;;;4.63;1.73;;;13.80;99.90;;;;;;4932791;28;20075;-90
2022/08/06 05:23:15;;;;;;;6.53;1.98;;;13.80;99.90;;;;;;4930142;28;20054;-91
2022/08/06 05:25:41;;;;;;;4.35;1.60;;;13.80;99.90;;;;;;4931593;29;20047;-90
2022/08/06 05:28:07;;;;;;;5.40;1.60;;;13.90;99.90;;;;;;4915128;29;20035;-91
2022/08/06 05:30:33;;;;;;;6.30;1.60;;;13.90;99.90;;;;;;4930686;29;20130;-92
2022/08/06 05:33:02;;;;;;;4.47;1.80;;;13.90;99.90;;;;;;4917097;28;20051;-90
2022/08/06 05:35:28;;;;;;;3.55;1.60;;;14.00;99.90;;;;;;4930789;28;21300;-90
2022/08/06 05:37:54;;;;;;;5.78;1.80;;;14.00;99.90;;;;;;4915303;29;20038;-92
2022/08/06 05:40:20;;;;;;;4.43;1.63;;;14.00;99.90;;;;;;4931786;29;20032;-91
2022/08/06 05:42:45;;;;;;;5.45;1.80;;;14.10;99.90;;;;;;4932359;29;20496;-92
2022/08/06 05:45:17;;;;;;;3.35;1.30;;;14.00;99.90;;;;;;4917648;28;20039;-90
2022/08/06 05:47:44;;;;;;;3.23;1.50;;;14.10;99.90;;;;;;4945680;28;20051;-90
2022/08/06 05:50:22;;;;;;;6.72;1.83;;;14.30;99.90;;;;;;4949444;28;20039;-92
2022/08/06 05:52:56;;;;;;;6.68;1.60;;;14.40;99.90;;;;;;4932244;29;20455;-93
2022/08/06 05:55:29;;;;;;;7.20;1.90;;;14.60;99.90;;;;;;4932730;29;20050;-92
2022/08/06 05:58:01;;;;;;;4.60;1.50;;;14.70;99.90;;;;;;4930516;28;20507;-91
2022/08/06 06:00:32;;;;;;;3.85;1.52;;;14.90;99.90;;;;;;4940432;28;20031;-92
2022/08/06 06:03:06;;;;;;;3.60;1.60;;;15.10;99.90;;;;;;4942457;29;20400;-91
2022/08/06 06:05:33;;;;;;;3.22;1.52;;;15.30;99.90;;;;;;4946006;28;20432;-91
2022/08/06 06:07:59;;;;;;;5.25;1.77;;;15.40;99.90;;;;;;4946591;28;20027;-91
2022/08/06 06:10:27;;;;;;;5.93;2.10;;;15.40;99.90;;;;;;4926044;28;20574;-92
2022/08/06 06:12:54;;;;;;;6.40;2.40;;;15.40;99.90;;;;;;4934927;29;20051;-91
2022/08/06 06:15:20;;;;;;;6.38;2.35;;;15.50;99.90;;;;;;4953226;28;20126;-91
2022/08/06 06:18:04;;;;;;;6.57;2.40;;;15.40;99.90;;;;;;4956790;28;20187;-92
2022/08/06 06:20:51;;;;;;;7.78;2.35;;;15.40;99.90;;;;;;4938245;29;20179;-90
2022/08/06 06:23:42;;;;;;;7.13;2.30;;;15.30;99.90;;;;;;4954038;28;20039;-91
2022/08/06 06:26:27;;;;;;;6.93;2.40;;;15.20;99.90;;;;;;4939010;28;20047;-90
2022/08/06 06:29:23;;;;;;;7.35;2.45;;;15.20;99.90;;;;;;4936549;28;20200;-90
2022/08/06 06:32:18;;;;;;;7.80;2.30;;;14.90;99.90;;;;;;4953282;28;20578;-90
2022/08/06 06:34:50;;;;;;;6.90;2.35;;;15.00;99.90;;;;;;4937658;28;20062;-90
2022/08/06 06:37:38;;;;;;;6.53;2.00;;;15.00;99.90;;;;;;4939104;29;20488;-90
2022/08/06 06:40:29;;;;;;;6.80;2.00;;;15.00;99.90;;;;;;4952600;28;20065;-89
2022/08/06 06:43:04;;;;;;;5.45;1.77;;;15.00;99.90;;;;;;4954214;28;20043;-89
2022/08/06 06:45:56;;;;;;;4.80;1.80;;;15.10;99.90;;;;;;4937461;29;20035;-89
2022/08/06 06:48:39;;;;;;;3.03;1.50;;;15.20;99.90;;;;;;4950125;28;20075;-89
2022/08/06 06:51:13;;;;;;;5.47;1.80;;;15.40;99.90;;;;;;4949520;28;20175;-90
2022/08/06 06:53:45;;;;;;;5.35;1.73;;;15.50;99.90;;;;;;4935099;28;20102;-89
2022/08/06 06:56:15;;;;;;;5.20;1.67;;;15.60;99.90;;;;;;4954223;28;20183;-91
2022/08/06 06:58:58;;;;;;;3.95;1.50;;;15.60;99.90;;;;;;4938646;28;20035;-90
2022/08/06 07:01:24;;;;;;;3.97;1.40;;;15.70;99.90;;;;;;4936894;28;20404;-90
2022/08/06 07:03:50;;;;;;;4.53;1.40;;;15.90;99.90;;;;;;4954886;28;20298;-90
2022/08/06 07:06:17;;;;;;;4.43;1.50;;;16.00;99.90;;;;;;4938159;29;20046;-90
2022/08/06 07:08:46;;;;;;;4.97;1.65;;;16.10;99.90;;;;;;4922571;28;20050;-90
2022/08/06 07:11:24;;;;;;;5.20;1.40;;;15.30;99.90;;;;;;4944192;28;20066;-91
2022/08/06 07:13:55;;;;;;;2.35;1.15;;;16.40;99.90;;;;;;4929421;29;20047;-89
2022/08/06 07:16:23;;;;;;;3.45;1.50;;;16.50;99.90;;;;;;4931632;28;20117;-91
2022/08/06 07:18:52;;;;;;;3.30;1.27;;;16.70;99.90;;;;;;4935088;29;20043;-91
2022/08/06 07:21:22;;;;;;;4.97;1.40;;;16.80;99.90;;;;;;4930715;28;20338;-91
2022/08/06 07:23:51;;;;;;;5.55;1.58;;;17.10;99.90;;;;;;4949894;28;20122;-92
2022/08/06 07:26:23;;;;;;;4.93;1.38;;;17.10;99.90;;;;;;4933794;28;20042;-92
2022/08/06 07:28:51;;;;;;;4.47;1.30;;;17.30;99.90;;;;;;4936151;29;20086;-93
2022/08/06 07:31:25;;;;;;;3.72;1.30;;;17.50;99.90;;;;;;4952561;28;20055;-93
2022/08/06 07:33:56;;;;;;;4.10;1.30;;;17.70;99.90;;;;;;4935595;29;20129;-92
2022/08/06 07:36:24;;;;;;;3.85;1.30;;;18.80;99.90;;;;;;4953262;28;20469;-91
2022/08/06 07:38:55;;;;;;;4.65;1.25;;;18.10;99.90;;;;;;4934543;29;20031;-91
2022/08/06 07:41:22;;;;;;;5.25;1.45;;;18.20;99.90;;;;;;4949842;28;20505;-91
2022/08/06 07:43:54;;;;;;;4.15;1.35;;;18.40;99.90;;;;;;4918566;29;20094;-92
2022/08/06 07:46:27;;;;;;;2.65;0.98;;;18.40;99.90;;;;;;4933766;28;20039;-90
2022/08/06 07:48:57;;;;;;;4.95;1.75;;;18.50;99.90;;;;;;4930683;28;20039;-89
2022/08/06 07:51:27;;;;;;;3.72;1.00;;;18.50;99.90;;;;;;4930194;29;20042;-91
2022/08/06 07:53:57;;;;;;;4.20;1.20;;;18.30;99.90;;;;;;4930551;28;20035;-90
2022/08/06 07:56:24;;;;;;;3.20;0.98;;;18.30;99.90;;;;;;4949668;28;20035;-91
2022/08/06 07:58:51;;;;;;;2.92;1.05;;;18.30;99.90;;;;;;4934443;29;20058;-91
2022/08/06 08:01:18;;;;;;;4.47;1.17;;;18.40;99.90;;;;;;4916786;29;20039;-90
2022/08/06 08:06:37;;;;;;;4.53;1.30;;;18.70;99.90;;;;;;4952942;28;20385;-93
2022/08/06 08:09:14;;;;;;;2.72;1.00;;;18.90;99.90;;;;;;4923719;28;20042;-93
2022/08/06 08:11:41;;;;;;;2.40;0.88;;;19.00;99.90;;;;;;4962018;28;20046;-90
2022/08/06 08:14:09;;;;;;;4.28;1.27;;;18.70;99.90;;;;;;4937047;28;20127;-90
2022/08/06 08:16:36;;;;;;;3.92;1.20;;;18.50;99.90;;;;;;4928770;28;20130;-91
2022/08/06 08:19:02;;;;;;;4.88;1.20;;;18.50;99.90;;;;;;4948018;28;20497;-89
2022/08/06 08:21:29;;;;;;;5.03;1.25;;;18.60;99.90;;;;;;4945856;28;20046;-91
2022/08/06 08:23:55;;;;;;;4.47;1.20;;;18.70;99.90;;;;;;4916987;28;20441;-91
2022/08/06 08:26:21;;;;;;;3.78;1.15;;;18.90;99.90;;;;;;4924077;28;20043;-90
2022/08/06 08:28:47;;;;;;;4.00;1.20;;;18.90;99.90;;;;;;4930866;28;20504;-91
2022/08/06 08:31:13;;;;;;;2.08;0.85;;;19.00;99.90;;;;;;4949751;28;20066;-89
2022/08/06 08:33:40;;;;;;;2.85;1.00;;;19.30;99.90;;;;;;4933259;28;20039;-91
2022/08/06 08:36:06;;;;;;;5.85;1.45;;;19.40;99.90;;;;;;4926400;28;20515;-91
2022/08/06 08:38:33;;;;;;;4.43;1.00;;;19.50;99.90;;;;;;4932938;29;20501;-92
2022/08/06 08:41:06;;;;;;;4.32;1.33;;;19.40;99.90;;;;;;4931742;28;20043;-90
2022/08/06 08:43:43;;;;;;;;;;;19.30;99.90;;;;;;4935081;28;20049;-89
2022/08/06 08:46:10;;;;;;;2.85;1.00;;;19.20;99.90;;;;;;4927813;28;19918;-91
2022/08/06 08:48:37;;;;;;;7.00;1.23;;;19.20;99.90;;;;;;4917725;28;20121;-90
2022/08/06 08:51:03;;;;;;;4.82;1.55;;;19.70;99.90;;;;;;4930275;28;20614;-90
2022/08/06 08:53:36;;;;;;;6.93;1.50;;;19.00;99.90;;;;;;4933229;29;20036;-90
2022/08/06 08:56:02;;;;;;;4.93;1.10;;;18.90;99.90;;;;;;4934016;28;20648;-91
2022/08/06 08:58:28;;;;;;;5.85;1.20;;;18.80;99.90;;;;;;4918062;29;20452;-90
2022/08/06 09:00:54;;;;;;;7.00;1.63;;;18.70;99.90;;;;;;4916738;28;20066;-91
2022/08/06 09:03:20;;;;;;;5.15;1.58;;;18.60;99.90;;;;;;4933461;28;20256;-90
2022/08/06 09:05:46;;;;;;;3.83;1.33;;;18.60;99.90;;;;;;4915830;29;20087;-90
2022/08/06 09:08:12;;;;;;;6.18;1.42;;;18.80;99.90;;;;;;4947483;28;20505;-91
2022/08/06 09:10:38;;;;;;;6.75;1.30;;;19.00;99.90;;;;;;4949320;28;20129;-91
2022/08/06 09:13:04;;;;;;;5.18;1.50;;;19.00;99.90;;;;;;4931840;28;20271;-91
2022/08/06 09:15:29;;;;;;;5.97;1.60;;;18.80;99.90;;;;;;4932689;29;20042;-89
2022/08/06 09:17:56;;;;;;;5.90;1.70;;;18.60;99.90;;;;;;4931504;29;20120;-90
2022/08/06 09:20:21;;;;;;;5.20;1.70;;;18.50;99.90;;;;;;4933332;29;20027;-92
2022/08/06 09:22:50;;;;;;;6.38;1.70;;;18.40;99.90;;;;;;4917167;29;20464;-91
2022/08/06 09:25:43;;;;;;;4.32;1.60;;;18.20;99.90;;;;;;4917787;29;20416;-91
2022/08/06 09:28:10;;;;;;;5.55;1.77;;;18.20;99.90;;;;;;4929648;28;20039;-92
2022/08/06 09:30:39;;;;;;;6.03;1.70;;;18.20;99.90;;;;;;4917061;29;20508;-91
2022/08/06 09:33:12;;;;;;;5.88;1.60;;;18.20;99.90;;;;;;4948749;28;20074;-91
2022/08/06 09:35:38;;;;;;;5.20;1.67;;;18.20;99.90;;;;;;4948661;28;20404;-92
2022/08/06 09:38:08;;;;;;;7.20;1.75;;;18.20;99.90;;;;;;4946471;28;20043;-92
2022/08/06 09:40:34;;;;;;;6.57;1.80;;;18.20;99.90;;;;;;4932036;28;20084;-91
2022/08/06 09:43:00;;;;;;;6.82;1.92;;;18.20;99.90;;;;;;4932517;28;20054;-90
2022/08/06 09:45:26;;;;;;;6.55;1.88;;;18.30;99.90;;;;;;4917474;28;20411;-91
2022/08/06 09:48:05;;;;;;;7.13;1.90;;;18.60;99.90;;;;;;4914478;28;20230;-91
2022/08/06 09:50:42;;;;;;;5.13;1.60;;;19.00;99.90;;;;;;4947397;28;20062;-90
2022/08/06 09:53:09;;;;;;;6.03;1.70;;;19.30;99.90;;;;;;4915197;29;20527;-90
2022/08/06 09:55:35;;;;;;;7.43;1.80;;;19.70;99.90;;;;;;4932482;29;20039;-91
2022/08/06 09:58:00;;;;;;;3.95;1.60;;;19.90;99.90;;;;;;4930263;29;20378;-90
2022/08/06 10:00:32;;;;;;;5.00;1.85;;;19.80;99.90;;;;;;4931127;29;20035;-90
2022/08/06 10:03:00;;;;;;;5.73;1.80;;;19.90;99.90;;;;;;4932220;29;20042;-90
2022/08/06 10:05:26;;;;;;;5.78;1.80;;;20.20;99.90;;;;;;4948518;28;20049;-92
2022/08/06 10:08:06;;;;;;;5.10;1.85;;;20.40;99.90;;;;;;4932868;28;20094;-91
2022/08/06 10:10:39;;;;;;;5.65;1.70;;;20.40;99.90;;;;;;4947237;28;20039;-91
2022/08/06 10:13:18;;;;;;;7.22;2.00;;;20.10;99.90;;;;;;4935610;29;20456;-89
2022/08/06 10:15:45;;;;;;;6.72;1.88;;;19.80;99.90;;;;;;4936150;28;20065;-89
2022/08/06 10:18:41;;;;;;;6.88;2.28;;;19.70;99.90;;;;;;4940753;28;20031;-91
2022/08/06 10:21:09;;;;;;;6.32;1.85;;;19.90;99.90;;;;;;4944739;28;20559;-89
2022/08/06 10:23:38;;;;;;;5.57;1.83;;;19.90;99.90;;;;;;4931144;29;20039;-88
2022/08/06 10:26:06;;;;;;;6.50;2.10;;;19.90;99.90;;;;;;4932143;28;20409;-90
2022/08/06 10:28:35;;;;;;;6.25;2.00;;;20.10;99.90;;;;;;4931327;28;20496;-89
2022/08/06 10:31:08;;;;;;;6.50;1.90;;;20.30;99.90;;;;;;4931487;28;20102;-92
2022/08/06 10:33:54;;;;;;;;;;;20.30;99.90;;;;;;4931110;28;20106;-90
2022/08/06 10:36:24;;;;;;;6.65;2.00;;;20.50;99.90;;;;;;4949104;28;19919;-91
2022/08/06 10:38:53;;;;;;;5.35;2.10;;;20.50;99.90;;;;;;4931597;29;20182;-90
2022/08/06 10:41:20;;;;;;;6.15;1.92;;;20.60;99.90;;;;;;4932154;28;20031;-90
2022/08/06 10:43:46;;;;;;;7.05;2.10;;;20.90;99.90;;;;;;4931987;28;20039;-90
2022/08/06 10:46:15;;;;;;;7.22;2.10;;;21.10;99.90;;;;;;4933306;29;20050;-90
2022/08/06 10:48:42;;;;;;;6.55;2.13;;;21.20;99.90;;;;;;4919698;28;20505;-90
2022/08/06 10:51:09;;;;;;;7.70;2.17;;;21.10;99.90;;;;;;4918268;28;20549;-90
2022/08/06 10:53:37;;;;;;;6.70;2.40;;;21.00;99.90;;;;;;4933775;28;20397;-92
2022/08/06 10:56:05;;;;;;;5.28;1.80;;;21.10;99.90;;;;;;4935040;29;20519;-89
2022/08/06 10:58:33;;;;;;;6.80;2.22;;;21.30;99.90;;;;;;4935616;28;20047;-91
2022/08/06 11:01:02;;;;;;;6.32;1.90;;;21.50;99.90;;;;;;4935094;29;20047;-90
2022/08/06 11:03:54;;;;;;;6.05;2.17;;;21.60;99.90;;;;;;4932731;28;20100;-90
2022/08/06 11:06:56;;;;;;;6.35;2.05;;;21.50;99.90;;;;;;4952722;28;20043;-91
2022/08/06 11:10:06;;;;;;;5.20;2.00;;;21.20;99.90;;;;;;4935288;29;20283;-90
2022/08/06 11:13:07;;;;;;;5.35;1.88;;;20.80;99.90;;;;;;4935195;29;20531;-91
2022/08/06 11:15:35;;;;;;;6.28;1.95;;;20.60;99.90;;;;;;4915792;28;20054;-90
2022/08/06 11:18:10;;;;;;;6.70;2.13;;;20.50;99.90;;;;;;4918915;28;20042;-93
2022/08/06 11:20:40;;;;;;;6.75;2.03;;;20.50;99.90;;;;;;4935415;28;20054;-90
2022/08/06 11:23:12;;;;;;;6.78;2.03;;;20.50;99.90;;;;;;4935087;29;20036;-91
2022/08/06 11:25:52;;;;;;;5.38;2.00;;;20.80;99.90;;;;;;4946453;28;20079;-90
2022/08/06 11:28:28;;;;;;;6.25;2.30;;;21.10;99.90;;;;;;4933749;28;20053;-89
2022/08/06 11:30:56;;;;;;;5.60;2.03;;;21.30;99.90;;;;;;4950296;28;20110;-90
2022/08/06 11:33:35;;;;;;;7.60;2.28;;;21.50;99.90;;;;;;4950294;28;20035;-91
2022/08/06 11:36:00;;;;;;;6.38;2.30;;;21.60;99.90;;;;;;4934140;28;20039;-92
2022/08/06 11:38:47;;;;;;;7.95;2.40;;;20.90;99.90;;;;;;4934906;28;20499;-90
2022/08/06 11:41:18;;;;;;;7.65;2.25;;;21.50;99.90;;;;;;4950736;28;20086;-89
2022/08/06 11:44:05;;;;;;;7.93;2.17;;;21.50;99.90;;;;;;4935230;28;20081;-89
2022/08/06 11:46:41;;;;;;;6.55;2.20;;;21.60;99.90;;;;;;4932275;28;20046;-90
2022/08/06 11:49:23;;;;;;;7.03;2.20;;;21.70;99.90;;;;;;4934300;29;20416;-90
2022/08/06 11:51:49;;;;;;;8.63;2.92;;;21.80;99.90;;;;;;4934597;29;20047;-91
2022/08/06 11:54:18;;;;;;;6.50;2.50;;;21.90;99.90;;;;;;4948428;28;20413;-90
2022/08/06 11:57:01;;;;;;;6.22;2.40;;;21.80;99.90;;;;;;4928577;28;20126;-90
2022/08/06 11:59:28;;;;;;;7.82;2.63;;;21.90;99.90;;;;;;4934381;29;20039;-90
2022/08/06 12:01:54;;;;;;;7.32;2.53;;;21.50;99.90;;;;;;4918453;29;20122;-90
2022/08/06 12:04:35;;;;;;;9.30;3.05;;;21.50;99.90;;;;;;4913705;29;20063;-90
2022/08/06 12:07:24;;;;;;;7.20;2.88;;;21.50;99.90;;;;;;4933564;28;20106;-88
2022/08/06 12:10:06;;;;;;;8.30;2.90;;;21.50;99.90;;;;;;4922547;28;20334;-90
2022/08/06 12:12:49;;;;;;;7.20;2.90;;;21.90;99.90;;;;;;4932438;29;20139;-92
2022/08/06 12:15:15;;;;;;;8.98;3.40;;;21.60;99.90;;;;;;4918260;29;20079;-92
2022/08/06 12:18:01;;;;;;;7.90;2.95;;;21.80;99.90;;;;;;4935128;28;20078;-93
2022/08/06 12:20:34;;;;;;;9.90;3.30;;;22.10;99.90;;;;;;4917258;28;20062;-91
2022/08/06 12:23:02;;;;;;;7.50;3.10;;;22.10;99.90;;;;;;4933958;28;20590;-92
2022/08/06 12:25:36;;;;;;;8.98;3.20;;;22.90;99.90;;;;;;4934164;28;20385;-89
2022/08/06 12:28:03;;;;;;;8.52;3.28;;;22.10;99.90;;;;;;4930256;28;20050;-90
2022/08/06 12:30:41;;;;;;;9.00;3.40;;;22.00;99.90;;;;;;4931925;29;20063;-90
2022/08/06 12:33:08;;;;;;;9.18;3.30;;;22.20;99.90;;;;;;4931779;29;20332;-91
2022/08/06 12:35:34;;;;;;;8.25;3.30;;;22.10;99.90;;;;;;4931176;28;20524;-89
2022/08/06 12:38:00;;;;;;;8.25;3.60;;;22.10;99.90;;;;;;4931861;28;20555;-88
2022/08/06 12:40:28;;;;;;;7.85;3.38;;;22.10;99.90;;;;;;4928614;28;20101;-89
2022/08/06 12:43:09;;;;;;;8.07;3.10;;;22.10;99.90;;;;;;4934727;28;20077;-89
2022/08/06 12:45:35;;;;;;;10.00;3.63;;;22.20;99.90;;;;;;4948636;28;20035;-90
2022/08/06 12:48:05;;;;;;;8.98;3.47;;;22.20;99.90;;;;;;4944637;28;20039;-89
2022/08/06 12:50:34;;;;;;;8.45;3.40;;;22.20;99.90;;;;;;4946952;28;20079;-89
2022/08/06 12:53:08;;;;;;;7.28;3.10;;;22.40;99.90;;;;;;4932393;28;20500;-87
2022/08/06 12:55:46;;;;;;;8.02;3.40;;;22.30;99.90;;;;;;4933039;29;20039;-90
2022/08/06 12:58:15;;;;;;;7.95;3.38;;;22.40;99.90;;;;;;4931703;28;20124;-89
2022/08/06 13:00:42;;;;;;;8.90;3.13;;;22.50;99.90;;;;;;4932041;28;20110;-87
2022/08/06 13:03:10;;;;;;;8.27;3.15;;;22.40;99.90;;;;;;4929572;29;20506;-88
2022/08/06 13:05:37;;;;;;;11.13;3.40;;;22.30;99.90;;;;;;4929789;28;20039;-88
2022/08/06 13:08:03;;;;;;;8.73;3.50;;;22.50;99.90;;;;;;4932372;28;20062;-87
2022/08/06 13:10:29;;;;;;;8.63;3.22;;;22.60;99.90;;;;;;4927906;28;20122;-88
2022/08/06 13:13:01;;;;;;;8.45;3.17;;;22.70;99.90;;;;;;4948384;28;20086;-90